CES715 ZLXY-ZWWW
Flight info
| Callsign | CES715 |
|---|---|
| Flight time | 3h 4m |
| Altitude | 34100 |
| Route | TEBIB9Y TEBIB W541 OVKAB W94 XFG W213 APESU W197 IDOPA W195 ESPED W66 NUKTI B215 HAM W99 FKG FKG3 |
| Aircraft | B77W/H-SDE1E2E3FGHIJ2J3J4J5M1RWXY/LB1D1 |
Departure
| Time | 2026-04-22 06:45 |
|---|---|
| Airport | Xi'an Xianyang International Airport (ZLXY) |
Arrival
| Time | 2026-04-22 09:50 |
|---|---|
| Airport | Ürümqi Tianshan International Airport (ZWWW) |
| Time | Latitude | Longitude | Altitude | Speed | Heading |
|---|---|---|---|---|---|
| 2026-04-22 06:22 | 34.43329 | 108.75982 | 1522 ft | 0 kts | 287° |
| 2026-04-22 06:36 | 34.43324 | 108.75999 | 1520 ft | 2 kts | 287° |
| 2026-04-22 06:36 | 34.43320 | 108.76018 | 1520 ft | 2 kts | 287° |
| 2026-04-22 06:36 | 34.43315 | 108.76037 | 1520 ft | 2 kts | 287° |
| 2026-04-22 06:37 | 34.43310 | 108.76056 | 1520 ft | 2 kts | 293° |
| 2026-04-22 06:37 | 34.43300 | 108.76070 | 1520 ft | 2 kts | 346° |
| 2026-04-22 06:37 | 34.43284 | 108.76069 | 1528 ft | 2 kts | 18° |
| 2026-04-22 06:37 | 34.43269 | 108.76063 | 1520 ft | 2 kts | 19° |
| 2026-04-22 06:38 | 34.43254 | 108.76054 | 1522 ft | 2 kts | 38° |
| 2026-04-22 06:38 | 34.43244 | 108.76044 | 1520 ft | 0 kts | 50° |
| 2026-04-22 06:39 | 34.43247 | 108.76049 | 1520 ft | 4 kts | 50° |
| 2026-04-22 06:39 | 34.43279 | 108.76109 | 1521 ft | 10 kts | 77° |
| 2026-04-22 06:40 | 34.43264 | 108.76189 | 1521 ft | 10 kts | 96° |
| 2026-04-22 06:40 | 34.43293 | 108.76270 | 1524 ft | 14 kts | 53° |
| 2026-04-22 06:40 | 34.43383 | 108.76400 | 1522 ft | 23 kts | 49° |
| 2026-04-22 06:40 | 34.43489 | 108.76548 | 1521 ft | 23 kts | 49° |
| 2026-04-22 06:41 | 34.43596 | 108.76696 | 1524 ft | 23 kts | 48° |
| 2026-04-22 06:41 | 34.43703 | 108.76842 | 1522 ft | 23 kts | 49° |
| 2026-04-22 06:41 | 34.43808 | 108.76988 | 1524 ft | 23 kts | 49° |
| 2026-04-22 06:41 | 34.43915 | 108.77136 | 1521 ft | 23 kts | 49° |
| 2026-04-22 06:42 | 34.44022 | 108.77283 | 1523 ft | 23 kts | 48° |
| 2026-04-22 06:42 | 34.44129 | 108.77431 | 1521 ft | 23 kts | 49° |
| 2026-04-22 06:42 | 34.44236 | 108.77578 | 1524 ft | 23 kts | 49° |
| 2026-04-22 06:42 | 34.44342 | 108.77725 | 1526 ft | 23 kts | 49° |
| 2026-04-22 06:43 | 34.44449 | 108.77872 | 1522 ft | 23 kts | 49° |
| 2026-04-22 06:43 | 34.44503 | 108.77948 | 1522 ft | 10 kts | 54° |
| 2026-04-22 06:43 | 34.44496 | 108.78031 | 1524 ft | 11 kts | 123° |
| 2026-04-22 06:43 | 34.44445 | 108.78095 | 1529 ft | 11 kts | 136° |
| 2026-04-22 06:44 | 34.44391 | 108.78155 | 1530 ft | 11 kts | 139° |
| 2026-04-22 06:44 | 34.44323 | 108.78156 | 1533 ft | 11 kts | 207° |
| 2026-04-22 06:44 | 34.44270 | 108.78094 | 1530 ft | 11 kts | 228° |
| 2026-04-22 06:44 | 34.44187 | 108.77982 | 1530 ft | 31 kts | 228° |
| 2026-04-22 06:45 | 34.43934 | 108.77633 | 1537 ft | 88 kts | 228° |
| 2026-04-22 06:45 | 34.43378 | 108.76870 | 1535 ft | 151 kts | 229° |
| 2026-04-22 06:45 | 34.42585 | 108.75770 | 1684 ft | 186 kts | 229° |
| 2026-04-22 06:45 | 34.41729 | 108.74611 | 2378 ft | 183 kts | 227° |
| 2026-04-22 06:46 | 34.40860 | 108.73468 | 3121 ft | 188 kts | 231° |
| 2026-04-22 06:46 | 34.39982 | 108.72256 | 3696 ft | 198 kts | 230° |
| 2026-04-22 06:46 | 34.39022 | 108.70914 | 4013 ft | 223 kts | 232° |
| 2026-04-22 06:46 | 34.37996 | 108.69491 | 4723 ft | 227 kts | 232° |
| 2026-04-22 06:47 | 34.36947 | 108.68037 | 5428 ft | 230 kts | 231° |
| 2026-04-22 06:47 | 34.35889 | 108.66569 | 6093 ft | 233 kts | 231° |
| 2026-04-22 06:47 | 34.34806 | 108.65065 | 6673 ft | 238 kts | 230° |
| 2026-04-22 06:47 | 34.33715 | 108.63562 | 7212 ft | 244 kts | 229° |
| 2026-04-22 06:48 | 34.32556 | 108.62046 | 7790 ft | 248 kts | 228° |
| 2026-04-22 06:48 | 34.31369 | 108.60509 | 8357 ft | 253 kts | 228° |
| 2026-04-22 06:48 | 34.30156 | 108.58931 | 8927 ft | 259 kts | 228° |
| 2026-04-22 06:48 | 34.28919 | 108.57323 | 9531 ft | 263 kts | 228° |
| 2026-04-22 06:49 | 34.27657 | 108.55678 | 10060 ft | 268 kts | 230° |
| 2026-04-22 06:49 | 34.26719 | 108.53757 | 10484 ft | 267 kts | 259° |
| 2026-04-22 06:49 | 34.26709 | 108.51555 | 11004 ft | 264 kts | 289° |
| 2026-04-22 06:49 | 34.27552 | 108.49600 | 11471 ft | 265 kts | 314° |
| 2026-04-22 06:50 | 34.28882 | 108.48029 | 12015 ft | 270 kts | 319° |
| 2026-04-22 06:50 | 34.30269 | 108.46505 | 12821 ft | 270 kts | 319° |
| 2026-04-22 06:50 | 34.31190 | 108.45493 | 13364 ft | 271 kts | 319° |
| 2026-04-22 06:50 | 34.32597 | 108.43939 | 14061 ft | 276 kts | 318° |
| 2026-04-22 06:51 | 34.34127 | 108.42554 | 14682 ft | 279 kts | 336° |
| 2026-04-22 06:51 | 34.35998 | 108.41839 | 15119 ft | 290 kts | 343° |
| 2026-04-22 06:51 | 34.38030 | 108.41170 | 15269 ft | 316 kts | 343° |
| 2026-04-22 06:51 | 34.40238 | 108.40448 | 15460 ft | 341 kts | 343° |
| 2026-04-22 06:52 | 34.42612 | 108.39669 | 15653 ft | 366 kts | 343° |
| 2026-04-22 06:52 | 34.45151 | 108.38833 | 15857 ft | 389 kts | 343° |
| 2026-04-22 06:52 | 34.47815 | 108.37952 | 16396 ft | 402 kts | 343° |
| 2026-04-22 06:52 | 34.50536 | 108.37050 | 17074 ft | 410 kts | 342° |
| 2026-04-22 06:53 | 34.53311 | 108.36127 | 17838 ft | 416 kts | 342° |
| 2026-04-22 06:53 | 34.56122 | 108.35188 | 18582 ft | 421 kts | 342° |
| 2026-04-22 06:53 | 34.58961 | 108.34239 | 19289 ft | 425 kts | 341° |
| 2026-04-22 06:53 | 34.61816 | 108.33284 | 20050 ft | 426 kts | 341° |
| 2026-04-22 06:54 | 34.64686 | 108.32323 | 20804 ft | 429 kts | 340° |
| 2026-04-22 06:54 | 34.67569 | 108.31354 | 21502 ft | 432 kts | 340° |
| 2026-04-22 06:54 | 34.70451 | 108.30385 | 22165 ft | 436 kts | 340° |
| 2026-04-22 06:54 | 34.73385 | 108.29398 | 22825 ft | 440 kts | 340° |
| 2026-04-22 06:55 | 34.76350 | 108.28398 | 23481 ft | 444 kts | 339° |
| 2026-04-22 06:55 | 34.79346 | 108.27389 | 24028 ft | 448 kts | 339° |
| 2026-04-22 06:55 | 34.82368 | 108.26372 | 24571 ft | 452 kts | 339° |
| 2026-04-22 06:55 | 34.85409 | 108.25347 | 25119 ft | 454 kts | 338° |
| 2026-04-22 06:56 | 34.88465 | 108.24317 | 25675 ft | 457 kts | 338° |
| 2026-04-22 06:56 | 34.91537 | 108.23279 | 26229 ft | 459 kts | 338° |
| 2026-04-22 06:56 | 34.94618 | 108.22237 | 26761 ft | 462 kts | 338° |
| 2026-04-22 06:56 | 34.97727 | 108.21185 | 27281 ft | 464 kts | 337° |
| 2026-04-22 06:57 | 35.00852 | 108.20128 | 27789 ft | 467 kts | 337° |
| 2026-04-22 06:57 | 35.03997 | 108.19063 | 28284 ft | 469 kts | 337° |
| 2026-04-22 06:57 | 35.07150 | 108.17994 | 28754 ft | 472 kts | 337° |
| 2026-04-22 06:57 | 35.10282 | 108.16933 | 29197 ft | 473 kts | 336° |
| 2026-04-22 06:58 | 35.13461 | 108.15854 | 29600 ft | 475 kts | 336° |
| 2026-04-22 06:58 | 35.16523 | 108.14465 | 29831 ft | 464 kts | 324° |
| 2026-04-22 06:58 | 35.19119 | 108.12223 | 30075 ft | 452 kts | 309° |
| 2026-04-22 06:58 | 35.21140 | 108.09390 | 30335 ft | 444 kts | 303° |
| 2026-04-22 06:59 | 35.23143 | 108.06502 | 30689 ft | 445 kts | 304° |
| 2026-04-22 06:59 | 35.25184 | 108.03662 | 31154 ft | 443 kts | 305° |
| 2026-04-22 06:59 | 35.27236 | 108.00854 | 31643 ft | 441 kts | 305° |
| 2026-04-22 06:59 | 35.29278 | 107.98066 | 32085 ft | 439 kts | 305° |
| 2026-04-22 07:00 | 35.31312 | 107.95283 | 32498 ft | 438 kts | 304° |
| 2026-04-22 07:00 | 35.33338 | 107.92504 | 32854 ft | 437 kts | 304° |
| 2026-04-22 07:00 | 35.35360 | 107.89724 | 33223 ft | 436 kts | 304° |
| 2026-04-22 07:00 | 35.37371 | 107.86959 | 33666 ft | 433 kts | 304° |
| 2026-04-22 07:01 | 35.39372 | 107.84206 | 34059 ft | 431 kts | 304° |
| 2026-04-22 07:01 | 35.43343 | 107.78734 | 34145 ft | 432 kts | 304° |
| 2026-04-22 07:02 | 35.47398 | 107.73294 | 34140 ft | 436 kts | 310° |
| 2026-04-22 07:02 | 35.49877 | 107.71045 | 34150 ft | 450 kts | 319° |
| 2026-04-22 07:02 | 35.52660 | 107.69198 | 34146 ft | 458 kts | 326° |
| 2026-04-22 07:02 | 35.55676 | 107.67803 | 34131 ft | 471 kts | 336° |
| 2026-04-22 07:03 | 35.58904 | 107.66956 | 34144 ft | 476 kts | 339° |
| 2026-04-22 07:03 | 35.65425 | 107.65482 | 34136 ft | 476 kts | 339° |
| 2026-04-22 07:04 | 35.71891 | 107.63825 | 34118 ft | 468 kts | 334° |
| 2026-04-22 07:04 | 35.74799 | 107.62277 | 34127 ft | 445 kts | 317° |
| 2026-04-22 07:04 | 35.77107 | 107.59868 | 34124 ft | 430 kts | 304° |
| 2026-04-22 07:05 | 35.80330 | 107.53800 | 34149 ft | 419 kts | 284° |
| 2026-04-22 07:05 | 35.81853 | 107.46959 | 34101 ft | 412 kts | 281° |
| 2026-04-22 07:06 | 35.83309 | 107.40177 | 34110 ft | 412 kts | 281° |
| 2026-04-22 07:06 | 35.84837 | 107.33357 | 34113 ft | 413 kts | 281° |
| 2026-04-22 07:07 | 35.86373 | 107.26545 | 34090 ft | 411 kts | 281° |
| 2026-04-22 07:07 | 35.87896 | 107.19765 | 34095 ft | 411 kts | 281° |
| 2026-04-22 07:08 | 35.89421 | 107.12952 | 34098 ft | 413 kts | 281° |
| 2026-04-22 07:08 | 35.90898 | 107.06129 | 34102 ft | 411 kts | 280° |
| 2026-04-22 07:09 | 35.92292 | 106.99309 | 34105 ft | 409 kts | 280° |
| 2026-04-22 07:09 | 35.93683 | 106.92473 | 34086 ft | 411 kts | 280° |
| 2026-04-22 07:10 | 35.95080 | 106.85621 | 34089 ft | 412 kts | 280° |
| 2026-04-22 07:10 | 35.96470 | 106.78806 | 34094 ft | 412 kts | 280° |
| 2026-04-22 07:11 | 35.97867 | 106.71947 | 34091 ft | 413 kts | 280° |
| 2026-04-22 07:11 | 35.99266 | 106.65051 | 34098 ft | 414 kts | 280° |
| 2026-04-22 07:12 | 36.00665 | 106.58137 | 34098 ft | 415 kts | 279° |
| 2026-04-22 07:12 | 36.02059 | 106.51225 | 34101 ft | 415 kts | 279° |
| 2026-04-22 07:13 | 36.03451 | 106.44296 | 34093 ft | 416 kts | 279° |
| 2026-04-22 07:13 | 36.04845 | 106.37336 | 34094 ft | 417 kts | 279° |
| 2026-04-22 07:14 | 36.06235 | 106.30371 | 34094 ft | 418 kts | 279° |
| 2026-04-22 07:14 | 36.07624 | 106.23401 | 34096 ft | 418 kts | 279° |
| 2026-04-22 07:15 | 36.09079 | 106.16435 | 34098 ft | 419 kts | 281° |
| 2026-04-22 07:15 | 36.10633 | 106.09514 | 34103 ft | 421 kts | 281° |
| 2026-04-22 07:16 | 36.12211 | 106.02477 | 34098 ft | 422 kts | 281° |
| 2026-04-22 07:16 | 36.13748 | 105.95538 | 34104 ft | 421 kts | 281° |
| 2026-04-22 07:17 | 36.15285 | 105.88557 | 34116 ft | 420 kts | 281° |
| 2026-04-22 07:17 | 36.16819 | 105.81544 | 34111 ft | 424 kts | 281° |
| 2026-04-22 07:18 | 36.18357 | 105.74501 | 34116 ft | 424 kts | 281° |
| 2026-04-22 07:18 | 36.19891 | 105.67460 | 34129 ft | 423 kts | 281° |
| 2026-04-22 07:19 | 36.21420 | 105.60417 | 34135 ft | 423 kts | 281° |
| 2026-04-22 07:19 | 36.22944 | 105.53369 | 34129 ft | 424 kts | 281° |
| 2026-04-22 07:20 | 36.24469 | 105.46307 | 34138 ft | 425 kts | 281° |
| 2026-04-22 07:20 | 36.25989 | 105.39238 | 34143 ft | 424 kts | 281° |
| 2026-04-22 07:21 | 36.27507 | 105.32156 | 34151 ft | 428 kts | 281° |
| 2026-04-22 07:21 | 36.29046 | 105.24950 | 34155 ft | 436 kts | 282° |
| 2026-04-22 07:22 | 36.30599 | 105.17667 | 34155 ft | 442 kts | 282° |
| 2026-04-22 07:22 | 36.32200 | 105.10210 | 34149 ft | 447 kts | 282° |
| 2026-04-22 07:23 | 36.33802 | 105.02742 | 34147 ft | 449 kts | 282° |
| 2026-04-22 07:23 | 36.35408 | 104.95244 | 34141 ft | 450 kts | 282° |
| 2026-04-22 07:24 | 36.36994 | 104.87792 | 34154 ft | 450 kts | 282° |
| 2026-04-22 07:24 | 36.38592 | 104.80260 | 34143 ft | 452 kts | 282° |
| 2026-04-22 07:25 | 36.40190 | 104.72703 | 34149 ft | 453 kts | 282° |
| 2026-04-22 07:25 | 36.41778 | 104.65129 | 34157 ft | 455 kts | 282° |
| 2026-04-22 07:26 | 36.43367 | 104.57511 | 34169 ft | 458 kts | 283° |
| 2026-04-22 07:26 | 36.44961 | 104.49848 | 34141 ft | 458 kts | 283° |
| 2026-04-22 07:27 | 36.46551 | 104.42188 | 34163 ft | 458 kts | 283° |
| 2026-04-22 07:27 | 36.48338 | 104.34640 | 34178 ft | 460 kts | 288° |
| 2026-04-22 07:28 | 36.52567 | 104.23864 | 34166 ft | 464 kts | 296° |
| 2026-04-22 07:28 | 36.55626 | 104.16783 | 34185 ft | 465 kts | 296° |
| 2026-04-22 07:29 | 36.58653 | 104.09667 | 34193 ft | 464 kts | 296° |
| 2026-04-22 07:29 | 36.60485 | 104.06364 | 34176 ft | 469 kts | 310° |
| 2026-04-22 07:29 | 36.62998 | 104.03711 | 34202 ft | 478 kts | 322° |
| 2026-04-22 07:30 | 36.65915 | 104.01674 | 34182 ft | 486 kts | 333° |
| 2026-04-22 07:30 | 36.69197 | 104.00506 | 34199 ft | 495 kts | 345° |
| 2026-04-22 07:30 | 36.76017 | 103.99079 | 34199 ft | 496 kts | 345° |
| 2026-04-22 07:31 | 36.82768 | 103.97411 | 34191 ft | 494 kts | 344° |
| 2026-04-22 07:31 | 36.89457 | 103.95711 | 34188 ft | 493 kts | 344° |
| 2026-04-22 07:32 | 36.96215 | 103.94006 | 34185 ft | 492 kts | 344° |
| 2026-04-22 07:32 | 37.02886 | 103.92328 | 34177 ft | 491 kts | 345° |
| 2026-04-22 07:33 | 37.09583 | 103.90641 | 34177 ft | 491 kts | 345° |
| 2026-04-22 07:33 | 37.16273 | 103.88949 | 34168 ft | 490 kts | 345° |
| 2026-04-22 07:34 | 37.22955 | 103.87252 | 34165 ft | 489 kts | 345° |
| 2026-04-22 07:34 | 37.29613 | 103.85531 | 34154 ft | 487 kts | 343° |
| 2026-04-22 07:35 | 37.35985 | 103.82869 | 34145 ft | 481 kts | 334° |
| 2026-04-22 07:35 | 37.42081 | 103.79488 | 34143 ft | 480 kts | 333° |
| 2026-04-22 07:36 | 37.48200 | 103.76117 | 34140 ft | 480 kts | 334° |
| 2026-04-22 07:36 | 37.54327 | 103.72788 | 34129 ft | 479 kts | 334° |
| 2026-04-22 07:37 | 37.60435 | 103.69467 | 34113 ft | 478 kts | 334° |
| 2026-04-22 07:37 | 37.66550 | 103.66142 | 34109 ft | 478 kts | 334° |
| 2026-04-22 07:38 | 37.71623 | 103.63379 | 34104 ft | 477 kts | 334° |
| 2026-04-22 07:38 | 37.77736 | 103.60045 | 34102 ft | 478 kts | 334° |
| 2026-04-22 07:39 | 37.83838 | 103.56710 | 34088 ft | 477 kts | 334° |
| 2026-04-22 07:39 | 37.89900 | 103.53389 | 34077 ft | 477 kts | 334° |
| 2026-04-22 07:40 | 37.95992 | 103.50047 | 34077 ft | 477 kts | 334° |
| 2026-04-22 07:40 | 38.02070 | 103.46706 | 34063 ft | 476 kts | 334° |
| 2026-04-22 07:41 | 38.08151 | 103.43358 | 34063 ft | 476 kts | 334° |
| 2026-04-22 07:41 | 38.14226 | 103.40007 | 34055 ft | 476 kts | 334° |
| 2026-04-22 07:42 | 38.20310 | 103.36644 | 34046 ft | 476 kts | 334° |
| 2026-04-22 07:42 | 38.26396 | 103.33275 | 34041 ft | 476 kts | 334° |
| 2026-04-22 07:43 | 38.32471 | 103.29905 | 34035 ft | 476 kts | 335° |
| 2026-04-22 07:43 | 38.38547 | 103.26529 | 34035 ft | 476 kts | 335° |
| 2026-04-22 07:44 | 38.44585 | 103.23167 | 34025 ft | 476 kts | 335° |
| 2026-04-22 07:44 | 38.50655 | 103.19782 | 34012 ft | 476 kts | 335° |
| 2026-04-22 07:45 | 38.56751 | 103.16376 | 34018 ft | 475 kts | 335° |
| 2026-04-22 07:45 | 38.62780 | 103.13001 | 34002 ft | 476 kts | 335° |
| 2026-04-22 07:46 | 38.68845 | 103.09599 | 34001 ft | 476 kts | 335° |
| 2026-04-22 07:46 | 38.74902 | 103.06196 | 33997 ft | 475 kts | 335° |
| 2026-04-22 07:47 | 38.80962 | 103.02785 | 34006 ft | 475 kts | 335° |
| 2026-04-22 07:47 | 38.87014 | 102.99372 | 33991 ft | 475 kts | 335° |
| 2026-04-22 07:48 | 38.93077 | 102.95946 | 33995 ft | 475 kts | 335° |
| 2026-04-22 07:48 | 38.99129 | 102.92520 | 33988 ft | 475 kts | 335° |
| 2026-04-22 07:49 | 39.05135 | 102.89113 | 33994 ft | 475 kts | 335° |
| 2026-04-22 07:49 | 39.11181 | 102.85677 | 33991 ft | 475 kts | 335° |
| 2026-04-22 07:50 | 39.17266 | 102.82213 | 33991 ft | 475 kts | 335° |
| 2026-04-22 07:50 | 39.23266 | 102.78791 | 33995 ft | 475 kts | 335° |
| 2026-04-22 07:51 | 39.29315 | 102.75334 | 33991 ft | 475 kts | 335° |
| 2026-04-22 07:51 | 39.35362 | 102.71871 | 33992 ft | 475 kts | 335° |
| 2026-04-22 07:52 | 39.41516 | 102.68737 | 33995 ft | 477 kts | 343° |
| 2026-04-22 07:52 | 39.48071 | 102.67247 | 34000 ft | 481 kts | 353° |
| 2026-04-22 07:53 | 39.54782 | 102.67205 | 33998 ft | 483 kts | 359° |
| 2026-04-22 07:53 | 39.61510 | 102.67398 | 33998 ft | 484 kts | 359° |
| 2026-04-22 07:54 | 39.68235 | 102.67561 | 33998 ft | 483 kts | 358° |
| 2026-04-22 07:54 | 39.74970 | 102.67677 | 33996 ft | 484 kts | 358° |
| 2026-04-22 07:55 | 39.81700 | 102.67777 | 33994 ft | 484 kts | 358° |
| 2026-04-22 07:55 | 39.88437 | 102.67876 | 33993 ft | 484 kts | 358° |
| 2026-04-22 07:56 | 39.95179 | 102.67978 | 33995 ft | 484 kts | 358° |
| 2026-04-22 07:56 | 40.01915 | 102.68081 | 33991 ft | 485 kts | 358° |
| 2026-04-22 07:57 | 40.08630 | 102.68184 | 33990 ft | 485 kts | 358° |
| 2026-04-22 07:57 | 40.15381 | 102.68288 | 33988 ft | 485 kts | 358° |
| 2026-04-22 07:58 | 40.22138 | 102.68392 | 33989 ft | 486 kts | 358° |
| 2026-04-22 07:58 | 40.28911 | 102.68496 | 33987 ft | 486 kts | 358° |
| 2026-04-22 07:59 | 40.35679 | 102.68601 | 33984 ft | 486 kts | 358° |
| 2026-04-22 07:59 | 40.42446 | 102.68706 | 33990 ft | 486 kts | 358° |
| 2026-04-22 08:00 | 40.49178 | 102.68810 | 33988 ft | 486 kts | 358° |
| 2026-04-22 08:00 | 40.55949 | 102.68916 | 33989 ft | 487 kts | 358° |
| 2026-04-22 08:01 | 40.62724 | 102.69021 | 33991 ft | 487 kts | 358° |
| 2026-04-22 08:01 | 40.69510 | 102.69127 | 33990 ft | 487 kts | 358° |
| 2026-04-22 08:02 | 40.76289 | 102.69233 | 33989 ft | 487 kts | 358° |
| 2026-04-22 08:02 | 40.83068 | 102.69339 | 33990 ft | 487 kts | 358° |
| 2026-04-22 08:03 | 40.89851 | 102.69446 | 33985 ft | 487 kts | 358° |
| 2026-04-22 08:03 | 40.96627 | 102.69553 | 33984 ft | 487 kts | 358° |
| 2026-04-22 08:04 | 41.03403 | 102.69660 | 33985 ft | 487 kts | 358° |
| 2026-04-22 08:04 | 41.10173 | 102.69767 | 33979 ft | 487 kts | 358° |
| 2026-04-22 08:05 | 41.16940 | 102.69874 | 33982 ft | 486 kts | 358° |
| 2026-04-22 08:05 | 41.23726 | 102.69981 | 33976 ft | 487 kts | 358° |
| 2026-04-22 08:06 | 41.30500 | 102.70090 | 33971 ft | 487 kts | 358° |
| 2026-04-22 08:06 | 41.37196 | 102.69911 | 33961 ft | 480 kts | 347° |
| 2026-04-22 08:07 | 41.40340 | 102.68502 | 33975 ft | 477 kts | 331° |
| 2026-04-22 08:07 | 41.43070 | 102.66010 | 33988 ft | 477 kts | 318° |
| 2026-04-22 08:07 | 41.47155 | 102.59104 | 33954 ft | 477 kts | 294° |
| 2026-04-22 08:08 | 41.49517 | 102.50828 | 33968 ft | 478 kts | 290° |
| 2026-04-22 08:08 | 41.51754 | 102.42469 | 33968 ft | 479 kts | 291° |
| 2026-04-22 08:09 | 41.54063 | 102.34125 | 33967 ft | 478 kts | 291° |
| 2026-04-22 08:09 | 41.56398 | 102.25877 | 33967 ft | 477 kts | 291° |
| 2026-04-22 08:10 | 41.58750 | 102.17592 | 33969 ft | 478 kts | 291° |
| 2026-04-22 08:10 | 41.61099 | 102.09284 | 33968 ft | 478 kts | 291° |
| 2026-04-22 08:11 | 41.63437 | 102.00971 | 33963 ft | 478 kts | 291° |
| 2026-04-22 08:11 | 41.65767 | 101.92661 | 33963 ft | 477 kts | 291° |
| 2026-04-22 08:12 | 41.68095 | 101.84326 | 33963 ft | 477 kts | 291° |
| 2026-04-22 08:12 | 41.70399 | 101.76053 | 33965 ft | 477 kts | 291° |
| 2026-04-22 08:13 | 41.72711 | 101.67721 | 33965 ft | 477 kts | 291° |
| 2026-04-22 08:13 | 41.75017 | 101.59385 | 33965 ft | 477 kts | 291° |
| 2026-04-22 08:14 | 41.77316 | 101.51046 | 33965 ft | 477 kts | 291° |
| 2026-04-22 08:14 | 41.79608 | 101.42704 | 33968 ft | 477 kts | 291° |
| 2026-04-22 08:15 | 41.81900 | 101.34338 | 33966 ft | 477 kts | 291° |
| 2026-04-22 08:15 | 41.84065 | 101.25916 | 33966 ft | 477 kts | 286° |
| 2026-04-22 08:16 | 41.85246 | 101.17203 | 33970 ft | 480 kts | 277° |
| 2026-04-22 08:16 | 41.85537 | 101.08239 | 33970 ft | 482 kts | 274° |
| 2026-04-22 08:17 | 41.85702 | 100.99254 | 33963 ft | 482 kts | 274° |
| 2026-04-22 08:17 | 41.85879 | 100.90245 | 33964 ft | 482 kts | 274° |
| 2026-04-22 08:18 | 41.86073 | 100.81249 | 33962 ft | 482 kts | 274° |
| 2026-04-22 08:18 | 41.86269 | 100.72259 | 33959 ft | 482 kts | 274° |
| 2026-04-22 08:19 | 41.86457 | 100.63328 | 33963 ft | 482 kts | 274° |
| 2026-04-22 08:19 | 41.86639 | 100.54329 | 33960 ft | 483 kts | 274° |
| 2026-04-22 08:20 | 41.86814 | 100.45323 | 33959 ft | 483 kts | 274° |
| 2026-04-22 08:20 | 41.86981 | 100.36312 | 33956 ft | 483 kts | 274° |
| 2026-04-22 08:21 | 41.87141 | 100.27304 | 33957 ft | 483 kts | 274° |
| 2026-04-22 08:21 | 41.87294 | 100.18288 | 33954 ft | 484 kts | 274° |
| 2026-04-22 08:22 | 41.87440 | 100.09263 | 33953 ft | 484 kts | 274° |
| 2026-04-22 08:22 | 41.87579 | 100.00242 | 33954 ft | 484 kts | 274° |
| 2026-04-22 08:23 | 41.87712 | 99.91202 | 33951 ft | 484 kts | 274° |
| 2026-04-22 08:23 | 41.87837 | 99.82154 | 33951 ft | 485 kts | 274° |
| 2026-04-22 08:24 | 41.87955 | 99.73167 | 33952 ft | 485 kts | 274° |
| 2026-04-22 08:24 | 41.88066 | 99.64118 | 33950 ft | 485 kts | 274° |
| 2026-04-22 08:25 | 41.88170 | 99.55066 | 33952 ft | 485 kts | 274° |
| 2026-04-22 08:25 | 41.88251 | 99.47526 | 33961 ft | 486 kts | 274° |
| 2026-04-22 08:26 | 41.88343 | 99.38463 | 33952 ft | 486 kts | 274° |
| 2026-04-22 08:26 | 41.88440 | 99.27907 | 33953 ft | 486 kts | 274° |
| 2026-04-22 08:27 | 41.88504 | 99.20302 | 33957 ft | 487 kts | 274° |
| 2026-04-22 08:27 | 41.88574 | 99.11213 | 33951 ft | 487 kts | 274° |
| 2026-04-22 08:28 | 41.88637 | 99.02132 | 33957 ft | 487 kts | 274° |
| 2026-04-22 08:28 | 41.88693 | 98.93071 | 33959 ft | 488 kts | 274° |
| 2026-04-22 08:29 | 41.88741 | 98.83965 | 33948 ft | 488 kts | 274° |
| 2026-04-22 08:29 | 41.88783 | 98.74850 | 33954 ft | 488 kts | 274° |
| 2026-04-22 08:30 | 41.88817 | 98.65738 | 33957 ft | 488 kts | 273° |
| 2026-04-22 08:30 | 41.88843 | 98.56633 | 33957 ft | 488 kts | 273° |
| 2026-04-22 08:31 | 41.88864 | 98.47520 | 33958 ft | 488 kts | 273° |
| 2026-04-22 08:32 | 41.88880 | 98.33933 | 33955 ft | 488 kts | 273° |
| 2026-04-22 08:32 | 41.88882 | 98.24810 | 33957 ft | 488 kts | 273° |
| 2026-04-22 08:33 | 41.88876 | 98.15720 | 33962 ft | 487 kts | 273° |
| 2026-04-22 08:33 | 41.88864 | 98.06614 | 33960 ft | 487 kts | 273° |
| 2026-04-22 08:34 | 41.88844 | 97.97523 | 33964 ft | 487 kts | 273° |
| 2026-04-22 08:34 | 41.88817 | 97.88434 | 33962 ft | 487 kts | 272° |
| 2026-04-22 08:35 | 41.88783 | 97.79348 | 33953 ft | 487 kts | 272° |
| 2026-04-22 08:35 | 41.88742 | 97.70263 | 33952 ft | 487 kts | 272° |
| 2026-04-22 08:36 | 41.88695 | 97.61240 | 33952 ft | 487 kts | 272° |
| 2026-04-22 08:36 | 41.88639 | 97.52149 | 33955 ft | 486 kts | 272° |
| 2026-04-22 08:37 | 41.88577 | 97.43077 | 33957 ft | 486 kts | 272° |
| 2026-04-22 08:37 | 41.88507 | 97.34001 | 33959 ft | 486 kts | 272° |
| 2026-04-22 08:38 | 41.88430 | 97.24923 | 33978 ft | 486 kts | 272° |
| 2026-04-22 08:38 | 41.88346 | 97.15860 | 33968 ft | 486 kts | 272° |
| 2026-04-22 08:39 | 41.88258 | 97.07073 | 33976 ft | 486 kts | 272° |
| 2026-04-22 08:39 | 41.88161 | 96.98003 | 33982 ft | 486 kts | 272° |
| 2026-04-22 08:40 | 41.88056 | 96.88925 | 33980 ft | 486 kts | 272° |
| 2026-04-22 08:40 | 41.87943 | 96.79864 | 33989 ft | 486 kts | 272° |
| 2026-04-22 08:41 | 41.87824 | 96.70783 | 33985 ft | 486 kts | 272° |
| 2026-04-22 08:41 | 41.87698 | 96.61716 | 33991 ft | 486 kts | 272° |
| 2026-04-22 08:42 | 41.87565 | 96.52694 | 33991 ft | 487 kts | 272° |
| 2026-04-22 08:42 | 41.87424 | 96.43615 | 33998 ft | 487 kts | 272° |
| 2026-04-22 08:43 | 41.87276 | 96.34524 | 33997 ft | 487 kts | 272° |
| 2026-04-22 08:43 | 41.87123 | 96.25446 | 34001 ft | 487 kts | 271° |
| 2026-04-22 08:44 | 41.87026 | 96.16369 | 33997 ft | 486 kts | 272° |
| 2026-04-22 08:44 | 41.86998 | 96.07282 | 34000 ft | 486 kts | 272° |
| 2026-04-22 08:45 | 41.86961 | 95.98215 | 34002 ft | 486 kts | 272° |
| 2026-04-22 08:45 | 41.86903 | 95.89126 | 33999 ft | 487 kts | 272° |
| 2026-04-22 08:46 | 41.86834 | 95.80049 | 33999 ft | 487 kts | 272° |
| 2026-04-22 08:46 | 41.86757 | 95.71016 | 34003 ft | 487 kts | 272° |
| 2026-04-22 08:47 | 41.86675 | 95.61932 | 33985 ft | 487 kts | 272° |
| 2026-04-22 08:47 | 41.86585 | 95.52852 | 33989 ft | 487 kts | 272° |
| 2026-04-22 08:48 | 41.86488 | 95.43761 | 33981 ft | 487 kts | 272° |
| 2026-04-22 08:48 | 41.86385 | 95.34679 | 33977 ft | 487 kts | 272° |
| 2026-04-22 08:49 | 41.86364 | 95.25618 | 33966 ft | 483 kts | 278° |
| 2026-04-22 08:49 | 41.87061 | 95.21240 | 33970 ft | 479 kts | 290° |
| 2026-04-22 08:49 | 41.88375 | 95.17135 | 33975 ft | 478 kts | 300° |
| 2026-04-22 08:49 | 41.90210 | 95.13424 | 33961 ft | 475 kts | 311° |
| 2026-04-22 08:50 | 41.92398 | 95.10102 | 33970 ft | 476 kts | 312° |
| 2026-04-22 08:50 | 41.96859 | 95.03491 | 33963 ft | 478 kts | 312° |
| 2026-04-22 08:51 | 42.01283 | 94.96845 | 33948 ft | 477 kts | 312° |
| 2026-04-22 08:51 | 42.05667 | 94.90149 | 33946 ft | 477 kts | 311° |
| 2026-04-22 08:52 | 42.10008 | 94.83469 | 33936 ft | 477 kts | 311° |
| 2026-04-22 08:52 | 42.14376 | 94.76730 | 33934 ft | 477 kts | 311° |
| 2026-04-22 08:53 | 42.18741 | 94.69984 | 33928 ft | 477 kts | 311° |
| 2026-04-22 08:53 | 42.23099 | 94.63238 | 33929 ft | 477 kts | 311° |
| 2026-04-22 08:54 | 42.27447 | 94.56490 | 33930 ft | 477 kts | 311° |
| 2026-04-22 08:54 | 42.31805 | 94.49712 | 33923 ft | 478 kts | 310° |
| 2026-04-22 08:55 | 42.36134 | 94.42963 | 33926 ft | 478 kts | 310° |
| 2026-04-22 08:55 | 42.40490 | 94.36157 | 33929 ft | 479 kts | 310° |
| 2026-04-22 08:56 | 42.44849 | 94.29329 | 33932 ft | 479 kts | 310° |
| 2026-04-22 08:56 | 42.49203 | 94.22494 | 33930 ft | 478 kts | 310° |
| 2026-04-22 08:57 | 42.53548 | 94.15656 | 33934 ft | 479 kts | 309° |
| 2026-04-22 08:57 | 42.57895 | 94.08800 | 33931 ft | 480 kts | 309° |
| 2026-04-22 08:58 | 42.62251 | 94.01914 | 33936 ft | 480 kts | 309° |
| 2026-04-22 08:58 | 42.66599 | 93.95025 | 33932 ft | 480 kts | 309° |
| 2026-04-22 08:59 | 42.70940 | 93.88129 | 33934 ft | 480 kts | 309° |
| 2026-04-22 08:59 | 42.75279 | 93.81219 | 33938 ft | 480 kts | 309° |
| 2026-04-22 09:00 | 42.79621 | 93.74292 | 33935 ft | 481 kts | 309° |
| 2026-04-22 09:00 | 42.83591 | 93.67055 | 33937 ft | 479 kts | 300° |
| 2026-04-22 09:01 | 42.86629 | 93.58990 | 33934 ft | 478 kts | 291° |
| 2026-04-22 09:01 | 42.89033 | 93.50537 | 33938 ft | 478 kts | 290° |
| 2026-04-22 09:02 | 42.91395 | 93.42072 | 33936 ft | 478 kts | 290° |
| 2026-04-22 09:02 | 42.93781 | 93.33613 | 33933 ft | 478 kts | 290° |
| 2026-04-22 09:03 | 42.96180 | 93.25148 | 33940 ft | 478 kts | 290° |
| 2026-04-22 09:03 | 42.98579 | 93.16670 | 33938 ft | 478 kts | 289° |
| 2026-04-22 09:04 | 43.00968 | 93.08193 | 33945 ft | 479 kts | 289° |
| 2026-04-22 09:04 | 43.03355 | 92.99688 | 33944 ft | 479 kts | 289° |
| 2026-04-22 09:05 | 43.05724 | 92.91221 | 33942 ft | 479 kts | 289° |
| 2026-04-22 09:05 | 43.08100 | 92.82697 | 33952 ft | 480 kts | 289° |
| 2026-04-22 09:06 | 43.10474 | 92.74151 | 33944 ft | 480 kts | 289° |
| 2026-04-22 09:06 | 43.12841 | 92.65605 | 33950 ft | 481 kts | 288° |
| 2026-04-22 09:07 | 43.15205 | 92.57038 | 33946 ft | 481 kts | 288° |
| 2026-04-22 09:07 | 43.17566 | 92.48454 | 33949 ft | 482 kts | 288° |
| 2026-04-22 09:08 | 43.19923 | 92.39852 | 33955 ft | 482 kts | 288° |
| 2026-04-22 09:08 | 43.22257 | 92.31304 | 33957 ft | 482 kts | 288° |
| 2026-04-22 09:09 | 43.24602 | 92.22688 | 33957 ft | 482 kts | 288° |
| 2026-04-22 09:09 | 43.26943 | 92.14054 | 33958 ft | 483 kts | 288° |
| 2026-04-22 09:10 | 43.29279 | 92.05408 | 33956 ft | 483 kts | 288° |
| 2026-04-22 09:10 | 43.31613 | 91.96754 | 33952 ft | 483 kts | 288° |
| 2026-04-22 09:11 | 43.34044 | 91.88134 | 33954 ft | 484 kts | 289° |
| 2026-04-22 09:11 | 43.36508 | 91.79526 | 33953 ft | 484 kts | 288° |
| 2026-04-22 09:12 | 43.38951 | 91.70899 | 33952 ft | 485 kts | 288° |
| 2026-04-22 09:12 | 43.41360 | 91.62327 | 33944 ft | 484 kts | 288° |
| 2026-04-22 09:13 | 43.43784 | 91.53681 | 33955 ft | 484 kts | 288° |
| 2026-04-22 09:13 | 43.46275 | 91.45055 | 33954 ft | 484 kts | 289° |
| 2026-04-22 09:14 | 43.48835 | 91.36449 | 33962 ft | 485 kts | 289° |
| 2026-04-22 09:14 | 43.50947 | 91.29304 | 33966 ft | 485 kts | 289° |
| 2026-04-22 09:15 | 43.53476 | 91.20681 | 33967 ft | 485 kts | 289° |
| 2026-04-22 09:15 | 43.55988 | 91.12068 | 33975 ft | 484 kts | 289° |
| 2026-04-22 09:16 | 43.58494 | 91.03439 | 33979 ft | 484 kts | 289° |
| 2026-04-22 09:16 | 43.60991 | 90.94811 | 33988 ft | 484 kts | 289° |
| 2026-04-22 09:17 | 43.63485 | 90.86171 | 33975 ft | 484 kts | 289° |
| 2026-04-22 09:17 | 43.65969 | 90.77536 | 33993 ft | 484 kts | 289° |
| 2026-04-22 09:18 | 43.68443 | 90.68903 | 34005 ft | 484 kts | 289° |
| 2026-04-22 09:18 | 43.70903 | 90.60302 | 34010 ft | 484 kts | 289° |
| 2026-04-22 09:19 | 43.73381 | 90.51656 | 34019 ft | 483 kts | 289° |
| 2026-04-22 09:19 | 43.75849 | 90.43025 | 34003 ft | 482 kts | 289° |
| 2026-04-22 09:20 | 43.78305 | 90.34403 | 34014 ft | 482 kts | 289° |
| 2026-04-22 09:20 | 43.80757 | 90.25762 | 34008 ft | 481 kts | 290° |
| 2026-04-22 09:21 | 43.83191 | 90.17150 | 34001 ft | 480 kts | 290° |
| 2026-04-22 09:21 | 43.85614 | 90.08546 | 34006 ft | 479 kts | 290° |
| 2026-04-22 09:22 | 43.88033 | 89.99930 | 33989 ft | 479 kts | 290° |
| 2026-04-22 09:22 | 43.90422 | 89.91391 | 33988 ft | 478 kts | 290° |
| 2026-04-22 09:23 | 43.92819 | 89.82789 | 33992 ft | 477 kts | 290° |
| 2026-04-22 09:23 | 43.95203 | 89.74210 | 33988 ft | 476 kts | 290° |
| 2026-04-22 09:24 | 43.97572 | 89.65652 | 33989 ft | 475 kts | 290° |
| 2026-04-22 09:24 | 43.99384 | 89.56846 | 33997 ft | 474 kts | 280° |
| 2026-04-22 09:25 | 44.00402 | 89.47809 | 33992 ft | 473 kts | 279° |
| 2026-04-22 09:25 | 44.01401 | 89.38803 | 33943 ft | 468 kts | 279° |
| 2026-04-22 09:25 | 44.01904 | 89.34344 | 33098 ft | 468 kts | 279° |
| 2026-04-22 09:26 | 44.02403 | 89.29955 | 32203 ft | 466 kts | 279° |
| 2026-04-22 09:26 | 44.02912 | 89.25499 | 31242 ft | 466 kts | 279° |
| 2026-04-22 09:26 | 44.03417 | 89.21053 | 30482 ft | 463 kts | 278° |
| 2026-04-22 09:26 | 44.03916 | 89.16660 | 29781 ft | 459 kts | 278° |
| 2026-04-22 09:27 | 44.04411 | 89.12271 | 29029 ft | 458 kts | 278° |
| 2026-04-22 09:27 | 44.04901 | 89.07904 | 28330 ft | 456 kts | 278° |
| 2026-04-22 09:27 | 44.05387 | 89.03561 | 27682 ft | 454 kts | 278° |
| 2026-04-22 09:27 | 44.05870 | 88.99227 | 27015 ft | 452 kts | 278° |
| 2026-04-22 09:28 | 44.06350 | 88.94914 | 26373 ft | 450 kts | 278° |
| 2026-04-22 09:28 | 44.06826 | 88.90623 | 25733 ft | 449 kts | 278° |
| 2026-04-22 09:28 | 44.07299 | 88.86335 | 25099 ft | 447 kts | 278° |
| 2026-04-22 09:28 | 44.07774 | 88.82068 | 24468 ft | 446 kts | 279° |
| 2026-04-22 09:29 | 44.08258 | 88.77883 | 23821 ft | 426 kts | 279° |
| 2026-04-22 09:29 | 44.08728 | 88.73892 | 23205 ft | 417 kts | 279° |
| 2026-04-22 09:29 | 44.09196 | 88.69918 | 22550 ft | 414 kts | 279° |
| 2026-04-22 09:29 | 44.09658 | 88.65980 | 21940 ft | 410 kts | 279° |
| 2026-04-22 09:30 | 44.10111 | 88.62093 | 21349 ft | 406 kts | 279° |
| 2026-04-22 09:30 | 44.10558 | 88.58226 | 20783 ft | 402 kts | 279° |
| 2026-04-22 09:30 | 44.10993 | 88.54454 | 20221 ft | 398 kts | 279° |
| 2026-04-22 09:30 | 44.11428 | 88.50670 | 19672 ft | 394 kts | 279° |
| 2026-04-22 09:31 | 44.11856 | 88.46918 | 19122 ft | 391 kts | 279° |
| 2026-04-22 09:31 | 44.12281 | 88.43197 | 18577 ft | 388 kts | 278° |
| 2026-04-22 09:31 | 44.12701 | 88.39499 | 17995 ft | 385 kts | 278° |
| 2026-04-22 09:31 | 44.13117 | 88.35833 | 17399 ft | 382 kts | 278° |
| 2026-04-22 09:32 | 44.13528 | 88.32193 | 16838 ft | 378 kts | 278° |
| 2026-04-22 09:32 | 44.13934 | 88.28591 | 16287 ft | 375 kts | 278° |
| 2026-04-22 09:32 | 44.14335 | 88.25020 | 15746 ft | 371 kts | 278° |
| 2026-04-22 09:32 | 44.14732 | 88.21480 | 15221 ft | 369 kts | 278° |
| 2026-04-22 09:33 | 44.15125 | 88.17962 | 14695 ft | 366 kts | 278° |
| 2026-04-22 09:33 | 44.15514 | 88.14467 | 14183 ft | 364 kts | 278° |
| 2026-04-22 09:33 | 44.15899 | 88.10998 | 13663 ft | 362 kts | 278° |
| 2026-04-22 09:33 | 44.16283 | 88.07547 | 13088 ft | 360 kts | 278° |
| 2026-04-22 09:34 | 44.16662 | 88.04120 | 12542 ft | 357 kts | 278° |
| 2026-04-22 09:34 | 44.17032 | 88.00715 | 12036 ft | 352 kts | 277° |
| 2026-04-22 09:34 | 44.17004 | 87.97348 | 11656 ft | 344 kts | 259° |
| 2026-04-22 09:35 | 44.15475 | 87.91021 | 11368 ft | 355 kts | 250° |
| 2026-04-22 09:35 | 44.14602 | 87.87814 | 11185 ft | 344 kts | 250° |
| 2026-04-22 09:35 | 44.13800 | 87.84856 | 10959 ft | 311 kts | 250° |
| 2026-04-22 09:35 | 44.13077 | 87.82160 | 10788 ft | 283 kts | 251° |
| 2026-04-22 09:36 | 44.12418 | 87.79685 | 10639 ft | 268 kts | 251° |
| 2026-04-22 09:36 | 44.11771 | 87.77242 | 10536 ft | 269 kts | 251° |
| 2026-04-22 09:36 | 44.11125 | 87.74795 | 10396 ft | 270 kts | 251° |
| 2026-04-22 09:36 | 44.10477 | 87.72343 | 10255 ft | 270 kts | 251° |
| 2026-04-22 09:37 | 44.09828 | 87.69891 | 10106 ft | 270 kts | 251° |
| 2026-04-22 09:37 | 44.09180 | 87.67439 | 9979 ft | 270 kts | 251° |
| 2026-04-22 09:37 | 44.08533 | 87.64993 | 9808 ft | 269 kts | 251° |
| 2026-04-22 09:37 | 44.07883 | 87.62540 | 9674 ft | 271 kts | 251° |
| 2026-04-22 09:38 | 44.07227 | 87.60078 | 9506 ft | 271 kts | 251° |
| 2026-04-22 09:38 | 44.06575 | 87.57624 | 9359 ft | 270 kts | 251° |
| 2026-04-22 09:38 | 44.05924 | 87.55185 | 9201 ft | 268 kts | 251° |
| 2026-04-22 09:38 | 44.05277 | 87.52761 | 9078 ft | 267 kts | 251° |
| 2026-04-22 09:39 | 44.04637 | 87.50364 | 8955 ft | 268 kts | 251° |
| 2026-04-22 09:39 | 44.03987 | 87.47937 | 8785 ft | 269 kts | 251° |
| 2026-04-22 09:39 | 44.03333 | 87.45501 | 8646 ft | 269 kts | 251° |
| 2026-04-22 09:39 | 44.02681 | 87.43059 | 8486 ft | 269 kts | 251° |
| 2026-04-22 09:40 | 44.02028 | 87.40625 | 8351 ft | 269 kts | 251° |
| 2026-04-22 09:40 | 44.01377 | 87.38201 | 8207 ft | 267 kts | 251° |
| 2026-04-22 09:40 | 44.00726 | 87.35783 | 8066 ft | 265 kts | 251° |
| 2026-04-22 09:40 | 44.00080 | 87.33386 | 7936 ft | 266 kts | 251° |
| 2026-04-22 09:41 | 43.99429 | 87.30965 | 7793 ft | 269 kts | 251° |
| 2026-04-22 09:41 | 43.98776 | 87.28535 | 7684 ft | 266 kts | 251° |
| 2026-04-22 09:41 | 43.98131 | 87.26150 | 7548 ft | 260 kts | 251° |
| 2026-04-22 09:41 | 43.97506 | 87.23835 | 7444 ft | 252 kts | 251° |
| 2026-04-22 09:42 | 43.96911 | 87.21631 | 7240 ft | 238 kts | 251° |
| 2026-04-22 09:42 | 43.96335 | 87.19501 | 7116 ft | 234 kts | 251° |
| 2026-04-22 09:42 | 43.95762 | 87.17389 | 7005 ft | 235 kts | 251° |
| 2026-04-22 09:42 | 43.95186 | 87.15266 | 6872 ft | 235 kts | 251° |
| 2026-04-22 09:43 | 43.94579 | 87.13158 | 6724 ft | 234 kts | 240° |
| 2026-04-22 09:43 | 43.93433 | 87.11585 | 6584 ft | 236 kts | 205° |
| 2026-04-22 09:43 | 43.91838 | 87.11160 | 6490 ft | 243 kts | 173° |
| 2026-04-22 09:43 | 43.90206 | 87.11708 | 6392 ft | 242 kts | 163° |
| 2026-04-22 09:44 | 43.88576 | 87.12381 | 6222 ft | 241 kts | 159° |
| 2026-04-22 09:44 | 43.87265 | 87.13569 | 6050 ft | 214 kts | 123° |
| 2026-04-22 09:44 | 43.86775 | 87.15422 | 6049 ft | 202 kts | 90° |
| 2026-04-22 09:44 | 43.86857 | 87.17336 | 5929 ft | 199 kts | 82° |
| 2026-04-22 09:45 | 43.87054 | 87.19240 | 5698 ft | 199 kts | 79° |
| 2026-04-22 09:45 | 43.87288 | 87.21139 | 5503 ft | 201 kts | 76° |
| 2026-04-22 09:45 | 43.87621 | 87.23043 | 5292 ft | 203 kts | 73° |
| 2026-04-22 09:45 | 43.88001 | 87.24896 | 5070 ft | 199 kts | 72° |
| 2026-04-22 09:46 | 43.88395 | 87.26743 | 4844 ft | 199 kts | 72° |
| 2026-04-22 09:46 | 43.88775 | 87.28542 | 4549 ft | 188 kts | 72° |
| 2026-04-22 09:46 | 43.89129 | 87.30214 | 4333 ft | 174 kts | 72° |
| 2026-04-22 09:46 | 43.89470 | 87.31801 | 4105 ft | 172 kts | 72° |
| 2026-04-22 09:47 | 43.89803 | 87.33385 | 3867 ft | 166 kts | 72° |
| 2026-04-22 09:47 | 43.90109 | 87.34834 | 3673 ft | 152 kts | 71° |
| 2026-04-22 09:47 | 43.90408 | 87.36233 | 3481 ft | 155 kts | 71° |
| 2026-04-22 09:47 | 43.90708 | 87.37652 | 3266 ft | 151 kts | 71° |
| 2026-04-22 09:48 | 43.91003 | 87.39044 | 3117 ft | 153 kts | 71° |
| 2026-04-22 09:48 | 43.91314 | 87.40503 | 2858 ft | 160 kts | 72° |
| 2026-04-22 09:48 | 43.91618 | 87.41974 | 2638 ft | 157 kts | 73° |
| 2026-04-22 09:48 | 43.91912 | 87.43414 | 2365 ft | 154 kts | 72° |
| 2026-04-22 09:49 | 43.92215 | 87.44804 | 2213 ft | 142 kts | 71° |
| 2026-04-22 09:49 | 43.92499 | 87.46068 | 2141 ft | 128 kts | 72° |
| 2026-04-22 09:49 | 43.92706 | 87.47054 | 2142 ft | 84 kts | 75° |
| 2026-04-22 09:49 | 43.92830 | 87.47647 | 2140 ft | 54 kts | 74° |
| 2026-04-22 09:50 | 43.92851 | 87.47912 | 2139 ft | 21 kts | 90° |
| 2026-04-22 09:50 | 43.92834 | 87.48113 | 2140 ft | 21 kts | 101° |
| 2026-04-22 09:50 | 43.92812 | 87.48313 | 2141 ft | 21 kts | 96° |
| 2026-04-22 09:50 | 43.92839 | 87.48510 | 2141 ft | 21 kts | 75° |
| 2026-04-22 09:51 | 43.92878 | 87.48702 | 2141 ft | 21 kts | 72° |
| 2026-04-22 09:51 | 43.92920 | 87.48896 | 2141 ft | 21 kts | 74° |
| 2026-04-22 09:51 | 43.92962 | 87.49090 | 2141 ft | 21 kts | 73° |
| 2026-04-22 09:51 | 43.92988 | 87.49211 | 2141 ft | 12 kts | 75° |
| 2026-04-22 09:52 | 43.92970 | 87.49315 | 2140 ft | 12 kts | 133° |
| 2026-04-22 09:52 | 43.92878 | 87.49374 | 2140 ft | 18 kts | 160° |
| 2026-04-22 09:52 | 43.92762 | 87.49424 | 2140 ft | 18 kts | 162° |
| 2026-04-22 09:52 | 43.92667 | 87.49354 | 2140 ft | 18 kts | 246° |
| 2026-04-22 09:53 | 43.92627 | 87.49182 | 2140 ft | 23 kts | 255° |
| 2026-04-22 09:53 | 43.92580 | 87.48956 | 2140 ft | 25 kts | 253° |
| 2026-04-22 09:53 | 43.92531 | 87.48729 | 2140 ft | 25 kts | 254° |
| 2026-04-22 09:53 | 43.92483 | 87.48502 | 2140 ft | 24 kts | 253° |
| 2026-04-22 09:54 | 43.92436 | 87.48278 | 2141 ft | 24 kts | 254° |
| 2026-04-22 09:54 | 43.92387 | 87.48052 | 2141 ft | 24 kts | 253° |
| 2026-04-22 09:54 | 43.92339 | 87.47824 | 2141 ft | 24 kts | 253° |
| 2026-04-22 09:54 | 43.92291 | 87.47598 | 2141 ft | 24 kts | 253° |
| 2026-04-22 09:55 | 43.92243 | 87.47371 | 2140 ft | 24 kts | 253° |
| 2026-04-22 09:55 | 43.92195 | 87.47149 | 2140 ft | 19 kts | 253° |
| 2026-04-22 09:55 | 43.92171 | 87.47035 | 2140 ft | 12 kts | 253° |
| 2026-04-22 09:55 | 43.92111 | 87.46970 | 2140 ft | 12 kts | 183° |
| 2026-04-22 09:56 | 43.92032 | 87.46999 | 2140 ft | 12 kts | 153° |
| 2026-04-22 09:56 | 43.92004 | 87.47099 | 2140 ft | 12 kts | 81° |
| 2026-04-22 09:56 | 43.92021 | 87.47192 | 2140 ft | 9 kts | 75° |
| 2026-04-22 09:56 | 43.92039 | 87.47280 | 2140 ft | 9 kts | 73° |
| 2026-04-22 09:57 | 43.92058 | 87.47367 | 2140 ft | 9 kts | 74° |
| 2026-04-22 09:57 | 43.92039 | 87.47450 | 2140 ft | 10 kts | 136° |
| 2026-04-22 09:57 | 43.91996 | 87.47475 | 2140 ft | 0 kts | 161° |